createdAt,value
2022-10-20T00:09:15.627Z,101468.85
2022-10-20T00:19:19.059Z,101479.69
2022-10-20T00:29:22.651Z,101477.20
2022-10-20T00:39:26.565Z,101474.02
2022-10-20T00:49:30.632Z,101470.20
2022-10-20T00:59:38.562Z,101471.90
2022-10-20T01:09:44.144Z,101467.73
2022-10-20T01:20:23.409Z,101477.03
2022-10-20T01:30:27.110Z,101477.86
2022-10-20T01:40:35.433Z,101477.27
2022-10-20T01:50:43.546Z,101472.01
2022-10-20T02:00:49.766Z,101475.34
2022-10-20T02:10:58.863Z,101476.36
2022-10-20T02:21:04.226Z,101466.02
2022-10-20T02:31:08.418Z,101462.64
2022-10-20T02:41:11.777Z,101456.83
2022-10-20T02:51:17.670Z,101463.02
2022-10-20T03:01:22.723Z,101470.91
2022-10-20T03:11:25.984Z,101473.73
2022-10-20T03:21:29.379Z,101462.61
2022-10-20T03:31:32.832Z,101475.91
2022-10-20T03:41:36.088Z,101477.83
2022-10-20T03:51:39.474Z,101482.43
2022-10-20T04:01:46.706Z,101488.89
2022-10-20T04:11:50.084Z,101500.28
2022-10-20T04:21:56.046Z,101506.48
2022-10-20T04:31:59.608Z,101501.18
2022-10-20T04:42:09.177Z,101502.81
2022-10-20T04:52:12.583Z,101511.73
2022-10-20T05:02:20.412Z,101513.00
2022-10-20T05:12:23.845Z,101517.10
2022-10-20T05:22:31.433Z,101527.16
2022-10-20T05:32:38.843Z,101533.27
2022-10-20T05:42:46.593Z,101537.04
2022-10-20T05:52:50.946Z,101539.61
2022-10-20T06:02:54.841Z,101551.64
2022-10-20T06:12:58.204Z,101559.48
2022-10-20T06:23:03.516Z,101561.69
2022-10-20T06:33:06.836Z,101573.91
2022-10-20T06:43:14.710Z,101580.21
2022-10-20T06:53:20.491Z,101589.55
2022-10-20T07:03:24.631Z,101596.26
2022-10-20T07:13:29.211Z,101598.50
2022-10-20T07:23:34.341Z,101608.02
2022-10-20T07:33:38.998Z,101614.55
2022-10-20T07:43:43.862Z,101626.78
2022-10-20T07:53:48.613Z,101620.05
2022-10-20T08:03:54.939Z,101621.59
2022-10-20T08:14:01.854Z,101625.91
2022-10-20T08:24:06.014Z,101631.73
2022-10-20T08:34:09.371Z,101640.80
2022-10-20T08:44:28.645Z,101637.38
2022-10-20T08:54:36.259Z,101634.27
2022-10-20T09:04:47.947Z,101630.77
2022-10-20T09:14:54.533Z,101626.80
2022-10-20T09:25:00.431Z,101633.06
2022-10-20T09:35:13.247Z,101625.95
2022-10-20T09:45:23.350Z,101618.98
2022-10-20T09:55:31.259Z,101609.88
2022-10-20T10:05:36.825Z,101610.48
2022-10-20T10:15:41.144Z,101603.40
2022-10-20T10:25:44.771Z,101600.46
2022-10-20T10:35:49.322Z,101592.62
2022-10-20T10:45:58.802Z,101576.71
2022-10-20T10:56:23.759Z,101573.86
2022-10-20T11:06:54.285Z,101563.38
2022-10-20T11:17:22.600Z,101555.95
2022-10-20T11:27:29.855Z,101536.88
2022-10-20T11:37:48.660Z,101520.26
2022-10-20T11:48:04.881Z,101513.40
2022-10-20T11:58:53.481Z,101502.87
2022-10-20T12:09:41.233Z,101496.06
2022-10-20T12:19:44.917Z,101488.27
2022-10-20T12:30:52.355Z,101478.88
2022-10-20T12:40:58.625Z,101477.63
2022-10-20T12:51:17.269Z,101474.69
2022-10-20T13:01:20.851Z,101468.04
2022-10-20T13:11:36.221Z,101461.44
2022-10-20T13:21:39.884Z,101463.25
2022-10-20T13:31:52.913Z,101462.40
2022-10-20T13:42:33.175Z,101460.05
2022-10-20T13:52:43.122Z,101449.35
2022-10-20T14:02:59.519Z,101441.02
2022-10-20T14:13:07.736Z,101436.38
2022-10-20T14:23:12.049Z,101426.31
2022-10-20T14:33:16.473Z,101417.62
2022-10-20T14:43:41.279Z,101415.97
2022-10-20T14:53:45.451Z,101408.02
2022-10-20T15:14:24.253Z,101390.36
2022-10-20T15:24:28.844Z,101385.95
2022-10-20T15:34:32.305Z,101383.80
2022-10-20T15:44:36.523Z,101376.02
2022-10-20T15:54:39.868Z,101381.25
2022-10-20T16:15:12.573Z,101388.11
2022-10-20T16:25:16.134Z,101390.22
2022-10-20T16:35:22.613Z,101390.27
2022-10-20T16:45:26.255Z,101395.15
2022-10-20T16:55:29.716Z,101388.61
2022-10-20T17:05:33.156Z,101393.02
2022-10-20T17:15:37.161Z,101389.73
2022-10-20T17:25:52.344Z,101386.98
2022-10-20T17:36:00.839Z,101394.21
2022-10-20T17:46:09.785Z,101393.37
2022-10-20T17:56:51.155Z,101392.23
2022-10-20T18:07:08.229Z,101390.16
2022-10-20T18:17:14.003Z,101383.61
2022-10-20T18:27:17.907Z,101377.90
2022-10-20T18:37:21.707Z,101377.71
2022-10-20T18:47:28.428Z,101379.63
2022-10-20T18:57:40.708Z,101379.44
2022-10-20T19:18:26.736Z,101386.48
2022-10-20T19:28:32.430Z,101388.86
2022-10-20T19:38:36.759Z,101381.70
2022-10-20T19:48:40.198Z,101373.62
2022-10-20T19:58:46.619Z,101364.29
2022-10-20T20:08:55.202Z,101363.81
2022-10-20T20:18:59.007Z,101356.63
2022-10-20T20:29:03.827Z,101356.31
2022-10-20T20:39:07.787Z,101348.67
2022-10-20T20:49:11.453Z,101344.13
2022-10-20T20:59:15.235Z,101333.85
2022-10-20T21:09:18.760Z,101329.09
2022-10-20T21:19:22.223Z,101317.95
2022-10-20T21:29:25.947Z,101311.56
2022-10-20T21:49:33.972Z,101299.06
2022-10-20T21:59:37.242Z,101287.10
2022-10-20T22:09:43.425Z,101286.83
2022-10-20T22:19:47.299Z,101279.27
2022-10-20T22:29:51.430Z,101262.02
2022-10-20T22:39:56.452Z,101244.30
2022-10-20T22:49:59.693Z,101231.10
2022-10-20T23:00:05.809Z,101222.08
2022-10-20T23:10:10.447Z,101221.59
2022-10-20T23:20:13.786Z,101224.16
2022-10-20T23:30:17.105Z,101219.23
2022-10-20T23:40:20.405Z,101220.54
2022-10-20T23:50:26.315Z,101222.91
